createdAt,value
2022-08-25T00:03:08.815Z,21.44
2022-08-25T00:08:11.627Z,21.33
2022-08-25T00:13:14.869Z,21.34
2022-08-25T00:18:20.072Z,21.42
2022-08-25T00:23:23.331Z,21.39
2022-08-25T00:28:26.238Z,21.18
2022-08-25T00:33:31.697Z,21.28
2022-08-25T00:38:34.548Z,21.24
2022-08-25T00:43:46.565Z,21.29
2022-08-25T00:48:54.420Z,21.29
2022-08-25T00:53:57.620Z,21.19
2022-08-25T00:59:01.079Z,21.23
2022-08-25T01:04:07.842Z,21.25
2022-08-25T01:09:12.144Z,21.25
2022-08-25T01:14:20.178Z,21.17
2022-08-25T01:19:28.195Z,21.21
2022-08-25T01:24:39.019Z,21.29
2022-08-25T01:29:41.992Z,21.28
2022-08-25T01:34:46.911Z,21.28
2022-08-25T01:39:51.602Z,21.25
2022-08-25T01:44:54.849Z,21.19
2022-08-25T01:49:57.755Z,21.27
2022-08-25T01:55:02.329Z,21.23
2022-08-25T02:00:07.083Z,21.20
2022-08-25T02:05:10.766Z,21.21
2022-08-25T02:10:15.429Z,21.18
2022-08-25T02:15:18.585Z,21.18
2022-08-25T02:20:21.636Z,21.15
2022-08-25T02:25:28.784Z,21.14
2022-08-25T02:30:31.865Z,21.08
2022-08-25T02:35:35.080Z,21.16
2022-08-25T02:40:39.466Z,21.11
2022-08-25T02:45:42.393Z,20.98
2022-08-25T02:50:47.563Z,21.01
2022-08-25T02:55:52.144Z,20.95
2022-08-25T03:00:56.838Z,21.00
2022-08-25T03:06:00.122Z,20.99
2022-08-25T03:11:04.569Z,21.08
2022-08-25T03:16:11.422Z,21.13
2022-08-25T03:21:16.291Z,21.15
2022-08-25T03:26:40.438Z,21.17
2022-08-25T03:31:45.144Z,21.16
2022-08-25T03:36:50.581Z,21.15
2022-08-25T03:41:55.017Z,21.17
2022-08-25T03:46:58.098Z,21.15
2022-08-25T03:52:04.237Z,21.11
2022-08-25T03:57:09.832Z,21.16
2022-08-25T04:02:12.846Z,21.23
2022-08-25T04:07:15.775Z,21.25
2022-08-25T04:12:20.059Z,21.27
2022-08-25T04:17:26.269Z,21.37
2022-08-25T04:22:30.011Z,21.36
2022-08-25T04:27:34.781Z,21.38
2022-08-25T04:32:37.963Z,21.32
2022-08-25T04:37:41.004Z,21.35
2022-08-25T04:42:45.664Z,21.38
2022-08-25T04:47:54.836Z,21.49
2022-08-25T04:52:58.234Z,21.61
2022-08-25T04:58:03.114Z,21.75
2022-08-25T05:03:06.218Z,21.82
2022-08-25T05:08:10.464Z,21.85
2022-08-25T05:13:15.791Z,22.03
2022-08-25T05:18:19.596Z,22.18
2022-08-25T05:23:23.905Z,22.27
2022-08-25T05:28:28.153Z,22.52
2022-08-25T05:33:32.996Z,22.67
2022-08-25T05:38:36.160Z,22.71
2022-08-25T05:43:42.502Z,22.99
2022-08-25T05:48:45.671Z,23.10
2022-08-25T05:53:50.104Z,23.28
2022-08-25T05:58:54.776Z,23.52
2022-08-25T06:04:00.410Z,23.84
2022-08-25T06:09:05.458Z,23.99
2022-08-25T06:14:10.820Z,24.41
2022-08-25T06:19:13.772Z,24.62
2022-08-25T06:24:17.615Z,24.71
2022-08-25T06:29:22.250Z,25.03
2022-08-25T06:34:25.253Z,25.24
2022-08-25T06:39:30.626Z,25.34
2022-08-25T06:44:35.635Z,25.21
2022-08-25T06:49:38.919Z,25.42
2022-08-25T06:54:42.087Z,25.23
2022-08-25T06:59:47.047Z,25.69
2022-08-25T07:04:50.687Z,25.93
2022-08-25T07:09:53.590Z,25.93
2022-08-25T07:15:17.277Z,25.97
2022-08-25T07:20:21.030Z,26.40
2022-08-25T07:25:26.993Z,26.60
2022-08-25T07:30:32.382Z,26.63
2022-08-25T07:35:37.835Z,27.11
2022-08-25T07:40:42.833Z,27.32
2022-08-25T07:45:49.199Z,27.68
2022-08-25T07:50:52.594Z,27.96
2022-08-25T07:55:55.629Z,28.15
2022-08-25T08:00:59.997Z,28.33
2022-08-25T08:06:08.390Z,28.48
2022-08-25T08:11:16.138Z,28.56
2022-08-25T08:16:23.127Z,28.60
2022-08-25T08:21:29.120Z,28.61
2022-08-25T08:26:55.275Z,28.79
2022-08-25T08:31:57.891Z,28.92
2022-08-25T08:37:02.303Z,29.07
2022-08-25T08:42:20.101Z,29.09
2022-08-25T08:47:33.286Z,29.27
2022-08-25T08:52:43.537Z,29.43
2022-08-25T08:57:51.518Z,29.60
2022-08-25T09:03:02.910Z,29.68
2022-08-25T09:08:10.440Z,29.79
2022-08-25T09:13:26.107Z,29.92
2022-08-25T09:18:51.114Z,30.01
2022-08-25T09:24:11.780Z,30.13
2022-08-25T09:29:19.415Z,30.34
2022-08-25T09:34:29.157Z,30.27
2022-08-25T09:39:32.166Z,30.47
2022-08-25T09:44:43.850Z,30.61
2022-08-25T09:49:50.874Z,30.64
2022-08-25T09:54:55.260Z,30.70
2022-08-25T10:00:09.634Z,30.67
2022-08-25T10:05:35.693Z,30.70
2022-08-25T10:10:44.033Z,30.74
2022-08-25T10:15:48.653Z,30.76
2022-08-25T10:21:07.785Z,30.78
2022-08-25T10:26:17.191Z,30.85
2022-08-25T10:31:24.464Z,30.94
2022-08-25T10:36:39.011Z,30.95
2022-08-25T10:41:55.108Z,30.93
2022-08-25T10:47:15.920Z,30.93
2022-08-25T10:52:30.969Z,30.84
2022-08-25T10:57:41.762Z,30.98
2022-08-25T11:03:06.965Z,30.97
2022-08-25T11:08:17.515Z,30.90
2022-08-25T11:13:27.284Z,30.94
2022-08-25T11:18:32.617Z,30.98
2022-08-25T11:23:45.094Z,30.93
2022-08-25T11:28:56.592Z,31.05
2022-08-25T11:33:59.981Z,30.91
2022-08-25T11:39:31.169Z,30.96
2022-08-25T11:45:05.262Z,31.10
2022-08-25T11:50:23.730Z,31.09
2022-08-25T11:55:50.697Z,31.09
2022-08-25T12:00:55.611Z,31.07
2022-08-25T12:06:18.105Z,31.14
2022-08-25T12:11:46.387Z,31.24
2022-08-25T12:17:13.336Z,31.13
2022-08-25T12:22:44.524Z,31.24
2022-08-25T12:28:01.835Z,31.49
2022-08-25T12:33:12.003Z,31.64
2022-08-25T12:38:19.298Z,31.53
2022-08-25T12:43:33.286Z,31.44
2022-08-25T12:48:55.708Z,31.40
2022-08-25T12:54:11.691Z,31.50
2022-08-25T12:59:23.477Z,31.39
2022-08-25T13:05:02.593Z,31.44
2022-08-25T13:10:27.518Z,31.38
2022-08-25T13:15:38.644Z,31.33
2022-08-25T13:20:43.952Z,31.19
2022-08-25T13:25:50.644Z,31.31
2022-08-25T13:31:01.315Z,31.26
2022-08-25T13:36:23.295Z,31.31
2022-08-25T13:41:29.454Z,31.23
2022-08-25T13:46:35.480Z,31.22
2022-08-25T13:51:43.663Z,31.13
2022-08-25T13:56:46.577Z,31.14
2022-08-25T14:01:52.834Z,31.15
2022-08-25T14:07:26.445Z,31.15
2022-08-25T14:12:34.229Z,31.02
2022-08-25T14:17:42.746Z,31.05
2022-08-25T14:22:46.027Z,31.04
2022-08-25T14:28:13.761Z,31.01
2022-08-25T14:33:20.932Z,30.96
2022-08-25T14:38:24.629Z,31.05
2022-08-25T14:43:31.755Z,31.07
2022-08-25T14:48:42.903Z,31.12
2022-08-25T14:53:46.218Z,31.12
2022-08-25T14:58:53.973Z,31.21
2022-08-25T15:04:04.977Z,31.18
2022-08-25T15:09:14.155Z,31.19
2022-08-25T15:14:29.009Z,31.13
2022-08-25T15:19:37.655Z,31.06
2022-08-25T15:24:42.463Z,31.01
2022-08-25T15:29:45.308Z,30.90
2022-08-25T15:34:51.823Z,30.78
2022-08-25T15:39:55.202Z,30.69
2022-08-25T15:44:58.920Z,30.61
2022-08-25T15:50:07.643Z,30.63
2022-08-25T15:55:11.564Z,30.51
2022-08-25T16:00:16.706Z,30.47
2022-08-25T16:05:25.818Z,30.37
2022-08-25T16:10:29.228Z,30.27
2022-08-25T16:15:32.838Z,30.16
2022-08-25T16:20:37.475Z,30.00
2022-08-25T16:25:42.385Z,29.91
2022-08-25T16:30:52.989Z,29.73
2022-08-25T16:36:07.431Z,29.60
2022-08-25T16:41:14.261Z,29.38
2022-08-25T16:46:19.748Z,29.24
2022-08-25T16:51:25.576Z,29.13
2022-08-25T16:56:35.425Z,28.91
2022-08-25T17:01:41.982Z,28.75
2022-08-25T17:06:49.547Z,28.58
2022-08-25T17:11:57.028Z,28.38
2022-08-25T17:17:07.105Z,28.06
2022-08-25T17:22:16.025Z,27.86
2022-08-25T17:27:21.804Z,27.70
2022-08-25T17:32:30.190Z,27.38
2022-08-25T17:37:35.033Z,27.11
2022-08-25T17:42:38.320Z,26.70
2022-08-25T17:47:41.607Z,26.47
2022-08-25T17:52:46.318Z,26.46
2022-08-25T17:57:49.591Z,26.39
2022-08-25T18:02:52.405Z,26.12
2022-08-25T18:07:57.275Z,25.95
2022-08-25T18:13:02.521Z,25.61
2022-08-25T18:18:06.039Z,25.50
2022-08-25T18:23:10.816Z,25.19
2022-08-25T18:28:14.109Z,25.06
2022-08-25T18:33:19.198Z,24.75
2022-08-25T18:38:42.853Z,24.71
2022-08-25T18:43:46.137Z,24.47
2022-08-25T18:48:49.287Z,24.40
2022-08-25T18:53:59.138Z,24.19
2022-08-25T18:59:04.918Z,24.14
2022-08-25T19:04:10.739Z,24.10
2022-08-25T19:09:15.896Z,23.94
2022-08-25T19:14:19.422Z,23.92
2022-08-25T19:19:22.466Z,23.96
2022-08-25T19:24:28.816Z,23.92
2022-08-25T19:29:32.156Z,23.90
2022-08-25T19:34:42.182Z,23.86
2022-08-25T19:39:53.014Z,23.77
2022-08-25T19:44:56.264Z,23.67
2022-08-25T19:49:59.351Z,23.51
2022-08-25T19:55:04.625Z,23.45
2022-08-25T20:00:10.600Z,23.31
2022-08-25T20:05:14.378Z,23.31
2022-08-25T20:10:21.491Z,23.06
2022-08-25T20:15:24.702Z,22.92
2022-08-25T20:20:32.641Z,22.83
2022-08-25T20:25:42.157Z,22.66
2022-08-25T20:30:45.734Z,22.63
2022-08-25T20:35:48.906Z,22.46
2022-08-25T20:40:53.340Z,22.32
2022-08-25T20:46:00.781Z,22.14
2022-08-25T20:51:05.289Z,22.31
2022-08-25T20:56:10.942Z,22.28
2022-08-25T21:01:20.410Z,22.19
2022-08-25T21:06:26.092Z,22.27
2022-08-25T21:11:30.837Z,22.19
2022-08-25T21:16:38.315Z,22.02
2022-08-25T21:21:41.827Z,22.03
2022-08-25T21:26:51.059Z,21.90
2022-08-25T21:31:54.741Z,21.69
2022-08-25T21:36:58.307Z,21.74
2022-08-25T21:42:04.545Z,21.50
2022-08-25T21:47:07.786Z,21.35
2022-08-25T21:52:11.134Z,21.33
2022-08-25T21:57:19.189Z,21.23
2022-08-25T22:02:26.849Z,21.17
2022-08-25T22:07:34.430Z,21.01
2022-08-25T22:12:45.786Z,20.94
2022-08-25T22:17:49.661Z,20.77
2022-08-25T22:22:52.921Z,20.66
2022-08-25T22:27:57.323Z,20.53
2022-08-25T22:33:00.800Z,20.48
2022-08-25T22:38:05.274Z,20.41
2022-08-25T22:43:10.953Z,20.31
2022-08-25T22:48:14.299Z,20.24
2022-08-25T22:53:17.267Z,20.19
2022-08-25T22:58:22.257Z,20.10
2022-08-25T23:03:26.319Z,20.06
2022-08-25T23:08:38.931Z,20.03
2022-08-25T23:13:45.844Z,20.07
2022-08-25T23:18:49.260Z,19.90
2022-08-25T23:23:52.547Z,19.77
2022-08-25T23:28:57.475Z,19.67
2022-08-25T23:34:01.054Z,19.53
2022-08-25T23:39:06.657Z,19.42
2022-08-25T23:44:17.495Z,19.37
2022-08-25T23:49:23.157Z,19.42
2022-08-25T23:54:31.067Z,19.35
2022-08-25T23:59:36.161Z,19.27
